createdAt,value
2022-10-02T00:01:07.889Z,75.73
2022-10-02T00:03:38.654Z,75.74
2022-10-02T00:06:09.985Z,75.31
2022-10-02T00:08:41.406Z,76.53
2022-10-02T00:11:12.018Z,75.91
2022-10-02T00:13:45.370Z,76.76
2022-10-02T00:16:20.335Z,77.89
2022-10-02T00:18:49.077Z,77.80
2022-10-02T00:21:29.164Z,77.66
2022-10-02T00:23:59.724Z,77.81
2022-10-02T00:26:31.802Z,77.28
2022-10-02T00:29:08.459Z,77.97
2022-10-02T00:31:44.783Z,77.60
2022-10-02T00:34:21.595Z,79.31
2022-10-02T00:36:55.469Z,79.75
2022-10-02T00:39:32.061Z,80.69
2022-10-02T00:42:32.464Z,78.05
2022-10-02T00:45:20.696Z,78.40
2022-10-02T00:47:54.771Z,78.09
2022-10-02T00:50:29.972Z,77.50
2022-10-02T00:53:09.678Z,77.64
2022-10-02T00:55:45.617Z,78.97
2022-10-02T00:58:26.279Z,80.29
2022-10-02T01:01:01.433Z,81.35
2022-10-02T01:03:31.786Z,79.77
2022-10-02T01:05:59.570Z,80.15
2022-10-02T01:08:27.374Z,81.48
2022-10-02T01:10:55.218Z,81.87
2022-10-02T01:13:23.079Z,79.15
2022-10-02T01:15:54.659Z,79.95
2022-10-02T01:18:24.029Z,79.74
2022-10-02T01:20:53.819Z,80.08
2022-10-02T01:23:28.437Z,77.90
2022-10-02T01:25:57.857Z,80.04
2022-10-02T01:28:25.878Z,79.21
2022-10-02T01:30:57.822Z,80.23
2022-10-02T01:33:25.575Z,80.47
2022-10-02T01:35:53.678Z,80.60
2022-10-02T01:38:24.659Z,78.52
2022-10-02T01:40:52.478Z,78.55
2022-10-02T01:43:23.354Z,77.17
2022-10-02T01:46:01.787Z,79.35
2022-10-02T01:48:43.599Z,77.32
2022-10-02T01:51:25.793Z,77.23
2022-10-02T01:54:02.866Z,78.67
2022-10-02T01:56:36.249Z,77.26
2022-10-02T01:59:09.790Z,76.40
2022-10-02T02:01:43.912Z,76.02
2022-10-02T02:04:20.997Z,76.61
2022-10-02T02:06:54.933Z,77.39
2022-10-02T02:09:28.430Z,76.69
2022-10-02T02:12:00.331Z,75.17
2022-10-02T02:14:31.517Z,76.16
2022-10-02T02:17:04.367Z,74.89
2022-10-02T02:19:35.374Z,77.12
2022-10-02T02:22:05.582Z,78.79
2022-10-02T02:24:37.217Z,80.41
2022-10-02T02:27:05.763Z,80.33
2022-10-02T02:29:36.198Z,78.92
2022-10-02T02:32:05.444Z,77.22
2022-10-02T02:34:36.865Z,76.36
2022-10-02T02:37:07.961Z,76.71
2022-10-02T02:39:40.794Z,75.87
2022-10-02T02:42:10.157Z,74.56
2022-10-02T02:44:42.861Z,76.77
2022-10-02T02:47:13.273Z,77.59
2022-10-02T02:49:47.909Z,76.81
2022-10-02T02:52:19.551Z,76.50
2022-10-02T02:54:49.788Z,78.45
2022-10-02T02:57:19.378Z,78.04
2022-10-02T02:59:50.420Z,78.69
2022-10-02T03:02:18.326Z,79.08
2022-10-02T03:04:46.485Z,78.60
2022-10-02T03:07:17.310Z,77.53
2022-10-02T03:09:53.170Z,77.61
2022-10-02T03:12:30.168Z,77.45
2022-10-02T03:15:06.956Z,77.36
2022-10-02T03:17:42.809Z,79.04
2022-10-02T03:20:14.510Z,76.47
2022-10-02T03:22:47.265Z,77.42
2022-10-02T03:25:17.375Z,77.63
2022-10-02T03:27:49.407Z,75.68
2022-10-02T03:30:20.645Z,74.27
2022-10-02T03:32:51.374Z,77.27
2022-10-02T03:35:19.238Z,75.15
2022-10-02T03:37:49.189Z,75.72
2022-10-02T03:40:17.001Z,75.17
2022-10-02T03:42:44.844Z,74.25
2022-10-02T03:45:27.286Z,77.07
2022-10-02T03:48:02.221Z,76.94
2022-10-02T03:50:32.868Z,76.81
2022-10-02T03:53:10.750Z,74.65
2022-10-02T03:55:40.150Z,77.36
2022-10-02T03:58:12.749Z,77.50
2022-10-02T04:00:43.963Z,76.94
2022-10-02T04:03:16.340Z,76.73
2022-10-02T04:05:48.002Z,76.53
2022-10-02T04:08:19.605Z,76.38
2022-10-02T04:10:51.609Z,75.02
2022-10-02T04:13:23.493Z,76.21
2022-10-02T04:15:57.858Z,78.35
2022-10-02T04:18:30.324Z,78.08
2022-10-02T04:21:00.998Z,78.42
2022-10-02T04:23:32.805Z,78.95
2022-10-02T04:26:02.506Z,78.35
2022-10-02T04:28:36.239Z,78.69
2022-10-02T04:31:09.532Z,79.42
2022-10-02T04:33:38.676Z,78.37
2022-10-02T04:36:12.284Z,77.93
2022-10-02T04:39:15.288Z,78.19
2022-10-02T04:41:56.891Z,76.11
2022-10-02T04:44:35.278Z,76.12
2022-10-02T04:47:21.462Z,76.31
2022-10-02T04:49:59.656Z,76.74
2022-10-02T04:52:39.046Z,76.77
2022-10-02T04:55:21.512Z,78.52
2022-10-02T04:58:00.710Z,79.56
2022-10-02T05:00:31.640Z,78.20
2022-10-02T05:03:12.481Z,77.48
2022-10-02T05:05:55.278Z,78.25
2022-10-02T05:08:50.249Z,79.27
2022-10-02T05:11:36.477Z,78.89
2022-10-02T05:14:15.574Z,78.06
2022-10-02T05:16:55.360Z,77.12
2022-10-02T05:19:37.869Z,77.16
2022-10-02T05:22:19.989Z,76.61
2022-10-02T05:24:52.003Z,76.89
2022-10-02T05:27:47.253Z,77.14
2022-10-02T05:30:15.958Z,76.75
2022-10-02T05:33:13.046Z,76.74
2022-10-02T05:35:51.127Z,77.13
2022-10-02T05:38:24.882Z,76.48
2022-10-02T05:41:00.134Z,75.72
2022-10-02T05:43:34.847Z,75.71
2022-10-02T05:46:06.493Z,74.68
2022-10-02T05:48:39.505Z,76.93
2022-10-02T05:51:10.381Z,76.44
2022-10-02T05:53:42.339Z,76.70
2022-10-02T05:56:13.398Z,76.69
2022-10-02T05:58:45.103Z,75.18
2022-10-02T06:01:15.074Z,75.48
2022-10-02T06:03:45.777Z,74.66
2022-10-02T06:06:17.959Z,74.49
2022-10-02T06:08:49.441Z,73.97
2022-10-02T06:11:20.408Z,73.75
2022-10-02T06:13:51.738Z,72.97
2022-10-02T06:16:23.340Z,73.28
2022-10-02T06:18:55.430Z,73.10
2022-10-02T06:21:32.030Z,73.30
2022-10-02T06:24:05.764Z,73.43
2022-10-02T06:26:39.860Z,73.17
2022-10-02T06:29:18.261Z,75.69
2022-10-02T06:31:49.821Z,74.53
2022-10-02T06:34:17.742Z,75.18
2022-10-02T06:37:02.833Z,75.71
2022-10-02T06:39:49.505Z,74.28
2022-10-02T06:42:32.476Z,74.10
2022-10-02T06:45:06.050Z,74.58
2022-10-02T06:47:49.079Z,75.82
2022-10-02T06:50:28.573Z,74.08
2022-10-02T06:53:01.032Z,74.63
2022-10-02T06:55:41.241Z,74.02
2022-10-02T06:58:22.459Z,73.12
2022-10-02T07:00:55.663Z,72.12
2022-10-02T07:03:34.942Z,73.64
2022-10-02T07:06:13.239Z,73.88
2022-10-02T07:08:51.416Z,74.16
2022-10-02T07:11:24.425Z,73.81
2022-10-02T07:14:01.688Z,74.21
2022-10-02T07:16:58.113Z,74.05
2022-10-02T07:19:39.798Z,74.16
2022-10-02T07:22:42.667Z,75.63
2022-10-02T07:25:22.232Z,75.67
2022-10-02T07:27:59.065Z,73.11
2022-10-02T07:30:32.834Z,73.14
2022-10-02T07:33:04.789Z,74.06
2022-10-02T07:35:38.505Z,74.86
2022-10-02T07:38:43.143Z,75.36
2022-10-02T07:41:21.308Z,74.44
2022-10-02T07:43:54.634Z,75.98
2022-10-02T07:46:26.274Z,75.61
2022-10-02T07:49:04.068Z,76.18
2022-10-02T07:51:49.766Z,75.10
2022-10-02T07:54:31.006Z,73.84
2022-10-02T07:57:07.603Z,76.53
2022-10-02T07:59:41.125Z,73.90
2022-10-02T08:02:20.092Z,73.14
2022-10-02T08:04:48.289Z,74.10
2022-10-02T08:07:16.151Z,72.89
2022-10-02T08:09:45.303Z,72.20
2022-10-02T08:12:20.439Z,73.63
2022-10-02T08:14:50.181Z,72.71
2022-10-02T08:17:28.523Z,70.83
2022-10-02T08:19:59.717Z,70.71
2022-10-02T08:22:31.874Z,71.98
2022-10-02T08:25:04.485Z,71.33
2022-10-02T08:27:45.418Z,73.22
2022-10-02T08:30:15.709Z,72.21
2022-10-02T08:32:43.871Z,71.63
2022-10-02T08:35:13.130Z,69.60
2022-10-02T08:37:45.825Z,69.81
2022-10-02T08:41:10.281Z,69.53
2022-10-02T08:44:11.501Z,67.99
2022-10-02T08:47:28.797Z,67.20
2022-10-02T08:50:11.635Z,66.16
2022-10-02T08:53:06.289Z,66.60
2022-10-02T08:56:19.185Z,65.48
2022-10-02T08:59:19.642Z,66.56
2022-10-02T09:02:09.309Z,67.18
2022-10-02T09:05:39.460Z,67.23
2022-10-02T09:08:46.569Z,66.29
2022-10-02T09:11:42.080Z,64.76
2022-10-02T09:14:37.264Z,63.12
2022-10-02T09:17:16.977Z,66.29
2022-10-02T09:19:51.333Z,67.95
2022-10-02T09:22:48.024Z,64.02
2022-10-02T09:25:24.615Z,64.20
2022-10-02T09:28:25.388Z,66.92
2022-10-02T09:31:34.994Z,65.17
2022-10-02T09:34:59.074Z,65.74
2022-10-02T09:37:47.697Z,66.61
2022-10-02T09:40:48.706Z,67.02
2022-10-02T09:43:51.225Z,65.66
2022-10-02T09:46:52.853Z,67.72
2022-10-02T09:49:50.001Z,68.60
2022-10-02T09:53:09.435Z,65.67
2022-10-02T09:56:04.149Z,64.30
2022-10-02T09:59:19.587Z,65.28
2022-10-02T10:02:00.469Z,66.33
2022-10-02T10:05:07.082Z,65.59
2022-10-02T10:08:06.647Z,66.49
2022-10-02T10:11:05.672Z,64.04
2022-10-02T10:13:56.469Z,66.66
2022-10-02T10:16:56.942Z,65.89
2022-10-02T10:19:59.656Z,65.95
2022-10-02T10:22:57.797Z,64.85
2022-10-02T10:25:44.397Z,64.09
2022-10-02T10:28:45.602Z,63.87
2022-10-02T10:31:39.934Z,65.84
2022-10-02T10:34:46.201Z,65.20
2022-10-02T10:37:44.311Z,65.82
2022-10-02T10:40:38.240Z,65.04
2022-10-02T10:43:41.974Z,66.19
2022-10-02T10:46:34.092Z,66.16
2022-10-02T10:49:21.837Z,64.96
2022-10-02T10:51:54.302Z,62.87
2022-10-02T10:54:55.723Z,61.03
2022-10-02T10:57:33.551Z,60.02
2022-10-02T11:00:16.442Z,61.77
2022-10-02T11:02:59.223Z,61.33
2022-10-02T11:06:03.811Z,58.22
2022-10-02T11:08:58.507Z,54.56
2022-10-02T11:11:33.762Z,52.98
2022-10-02T11:14:24.093Z,50.78
2022-10-02T11:17:18.411Z,51.11
2022-10-02T11:20:16.453Z,49.33
2022-10-02T11:23:04.018Z,46.19
2022-10-02T11:25:38.979Z,46.59
2022-10-02T11:28:28.591Z,46.58
2022-10-02T11:31:05.243Z,46.21
2022-10-02T11:33:57.261Z,47.51
2022-10-02T11:36:42.776Z,49.55
2022-10-02T11:39:32.119Z,49.16
2022-10-02T11:42:26.497Z,49.22
2022-10-02T11:45:05.509Z,48.81
2022-10-02T11:47:49.253Z,50.16
2022-10-02T11:50:35.893Z,49.84
2022-10-02T11:53:42.258Z,49.71
2022-10-02T11:56:22.628Z,48.84
2022-10-02T11:59:02.366Z,47.62
2022-10-02T12:01:35.992Z,48.09
2022-10-02T12:04:22.299Z,47.97
2022-10-02T12:07:05.195Z,46.74
2022-10-02T12:09:42.025Z,46.71
2022-10-02T12:12:22.507Z,46.49
2022-10-02T12:15:00.036Z,46.01
2022-10-02T12:17:46.621Z,44.08
2022-10-02T12:20:36.637Z,44.20
2022-10-02T12:23:30.655Z,41.36
2022-10-02T12:26:23.709Z,42.15
2022-10-02T12:28:56.843Z,44.13
2022-10-02T12:31:29.263Z,42.97
2022-10-02T12:34:01.261Z,43.57
2022-10-02T12:36:45.118Z,45.87
2022-10-02T12:39:26.316Z,46.49
2022-10-02T12:42:06.517Z,46.77
2022-10-02T12:44:47.594Z,46.59
2022-10-02T12:47:40.209Z,46.40
2022-10-02T12:50:23.262Z,43.82
2022-10-02T12:53:14.584Z,43.18
2022-10-02T12:56:06.934Z,43.48
2022-10-02T12:58:45.735Z,42.56
2022-10-02T13:01:50.465Z,41.93
2022-10-02T13:05:01.796Z,43.36
2022-10-02T13:08:09.553Z,42.41
2022-10-02T13:10:40.497Z,43.19
2022-10-02T13:13:25.856Z,42.65
2022-10-02T13:15:58.386Z,42.32
2022-10-02T13:18:43.977Z,43.44
2022-10-02T13:21:18.306Z,44.21
2022-10-02T13:23:56.398Z,43.67
2022-10-02T13:26:33.290Z,42.05
2022-10-02T13:29:15.887Z,42.74
2022-10-02T13:31:52.457Z,43.69
2022-10-02T13:34:38.181Z,43.26
2022-10-02T13:37:15.450Z,42.39
2022-10-02T13:40:02.619Z,41.87
2022-10-02T13:42:38.086Z,40.54
2022-10-02T13:45:16.472Z,41.58
2022-10-02T13:47:51.633Z,41.24
2022-10-02T13:50:39.642Z,40.39
2022-10-02T13:53:27.000Z,38.77
2022-10-02T13:56:02.800Z,39.16
2022-10-02T13:58:44.054Z,36.94
2022-10-02T14:01:21.028Z,36.93
2022-10-02T14:04:10.854Z,40.25
2022-10-02T14:06:41.968Z,40.31
2022-10-02T14:09:20.908Z,41.46
2022-10-02T14:12:11.457Z,43.18
2022-10-02T14:15:07.456Z,44.39
2022-10-02T14:17:44.678Z,44.76
2022-10-02T14:20:23.067Z,45.31
2022-10-02T14:23:06.069Z,44.46
2022-10-02T14:25:42.431Z,43.83
2022-10-02T14:28:28.986Z,43.93
2022-10-02T14:31:17.720Z,44.59
2022-10-02T14:34:02.009Z,46.42
2022-10-02T14:36:35.174Z,47.25
2022-10-02T14:39:14.236Z,47.58
2022-10-02T14:42:03.632Z,47.70
2022-10-02T14:44:44.776Z,48.32
2022-10-02T14:47:22.181Z,49.14
2022-10-02T14:50:15.965Z,49.62
2022-10-02T14:53:12.431Z,48.97
2022-10-02T14:56:00.539Z,48.61
2022-10-02T14:58:39.222Z,47.76
2022-10-02T15:01:19.639Z,48.23
2022-10-02T15:03:55.638Z,48.38
2022-10-02T15:06:28.597Z,48.22
2022-10-02T15:08:59.738Z,49.47
2022-10-02T15:11:47.683Z,48.55
2022-10-02T15:14:19.938Z,49.87
2022-10-02T15:17:06.589Z,49.83
2022-10-02T15:19:40.430Z,50.40
2022-10-02T15:22:19.441Z,50.22
2022-10-02T15:24:50.825Z,50.93
2022-10-02T15:27:23.757Z,51.88
2022-10-02T15:30:01.542Z,51.70
2022-10-02T15:32:44.798Z,51.74
2022-10-02T15:35:21.820Z,51.46
2022-10-02T15:38:04.555Z,51.12
2022-10-02T15:40:35.716Z,52.59
2022-10-02T15:43:24.637Z,52.32
2022-10-02T15:46:01.720Z,52.34
2022-10-02T15:48:38.882Z,53.06
2022-10-02T15:51:12.729Z,52.66
2022-10-02T15:53:51.625Z,52.04
2022-10-02T15:56:47.222Z,51.59
2022-10-02T15:59:35.677Z,51.05
2022-10-02T16:02:15.835Z,50.43
2022-10-02T16:04:51.415Z,51.05
2022-10-02T16:08:01.004Z,51.05
2022-10-02T16:10:33.922Z,50.98
2022-10-02T16:13:18.037Z,50.86
2022-10-02T16:15:51.997Z,50.97
2022-10-02T16:18:28.313Z,51.95
2022-10-02T16:21:13.794Z,51.62
2022-10-02T16:23:56.024Z,51.39
2022-10-02T16:26:35.618Z,50.84
2022-10-02T16:29:22.244Z,50.70
2022-10-02T16:32:02.912Z,50.40
2022-10-02T16:34:40.733Z,50.07
2022-10-02T16:37:16.522Z,50.45
2022-10-02T16:39:54.605Z,50.80
2022-10-02T16:42:39.591Z,51.51
2022-10-02T16:45:25.815Z,52.00
2022-10-02T16:47:56.482Z,51.59
2022-10-02T16:50:26.651Z,52.77
2022-10-02T16:52:58.670Z,53.00
2022-10-02T16:55:32.095Z,52.95
2022-10-02T16:58:09.558Z,54.66
2022-10-02T17:00:40.946Z,54.11
2022-10-02T17:03:12.362Z,54.36
2022-10-02T17:05:47.122Z,54.82
2022-10-02T17:08:24.416Z,53.88
2022-10-02T17:11:07.302Z,53.52
2022-10-02T17:13:47.996Z,54.34
2022-10-02T17:16:21.285Z,54.25
2022-10-02T17:18:54.106Z,55.22
2022-10-02T17:21:25.171Z,53.85
2022-10-02T17:24:01.430Z,53.33
2022-10-02T17:26:35.712Z,52.78
2022-10-02T17:29:16.084Z,52.66
2022-10-02T17:31:50.402Z,52.95
2022-10-02T17:34:21.187Z,53.05
2022-10-02T17:36:58.372Z,54.06
2022-10-02T17:39:36.956Z,54.10
2022-10-02T17:42:11.593Z,54.09
2022-10-02T17:44:49.630Z,54.24
2022-10-02T17:47:41.863Z,54.03
2022-10-02T17:50:21.726Z,54.36
2022-10-02T17:53:11.993Z,54.16
2022-10-02T17:56:23.802Z,55.29
2022-10-02T17:59:12.436Z,55.40
2022-10-02T18:01:44.116Z,55.95
2022-10-02T18:04:17.024Z,55.77
2022-10-02T18:06:53.726Z,56.28
2022-10-02T18:09:35.967Z,56.80
2022-10-02T18:12:32.036Z,57.54
2022-10-02T18:15:18.658Z,57.64
2022-10-02T18:17:58.917Z,59.08
2022-10-02T18:20:34.238Z,59.08
2022-10-02T18:23:21.249Z,58.70
2022-10-02T18:26:05.266Z,58.72
2022-10-02T18:28:46.270Z,58.87
2022-10-02T18:31:54.010Z,59.42
2022-10-02T18:34:27.545Z,60.68
2022-10-02T18:37:09.609Z,60.61
2022-10-02T18:39:41.779Z,60.69
2022-10-02T18:42:33.817Z,60.01
2022-10-02T18:45:06.875Z,60.24
2022-10-02T18:47:43.581Z,60.45
2022-10-02T18:50:27.044Z,60.48
2022-10-02T18:53:05.045Z,60.98
2022-10-02T18:55:44.039Z,62.03
2022-10-02T18:58:24.034Z,62.30
2022-10-02T19:01:05.166Z,62.89
2022-10-02T19:03:42.897Z,63.10
2022-10-02T19:06:15.057Z,63.30
2022-10-02T19:09:02.253Z,63.88
2022-10-02T19:11:31.204Z,64.41
2022-10-02T19:14:03.142Z,63.97
2022-10-02T19:16:32.399Z,64.93
2022-10-02T19:19:09.790Z,64.39
2022-10-02T19:21:40.077Z,65.40
2022-10-02T19:24:15.127Z,65.29
2022-10-02T19:26:45.556Z,64.92
2022-10-02T19:29:23.091Z,64.92
2022-10-02T19:31:51.015Z,64.42
2022-10-02T19:34:21.370Z,65.25
2022-10-02T19:36:53.081Z,66.22
2022-10-02T19:39:25.303Z,66.46
2022-10-02T19:41:56.509Z,67.42
2022-10-02T19:44:28.798Z,66.47
2022-10-02T19:46:58.814Z,67.16
2022-10-02T19:49:30.227Z,67.63
2022-10-02T19:51:59.449Z,66.67
2022-10-02T19:54:30.029Z,66.43
2022-10-02T19:57:03.372Z,66.44
2022-10-02T19:59:36.362Z,66.20
2022-10-02T20:02:15.216Z,65.36
2022-10-02T20:04:42.977Z,65.61
2022-10-02T20:07:16.427Z,66.33
2022-10-02T20:09:47.429Z,67.17
2022-10-02T20:12:17.607Z,67.63
2022-10-02T20:14:50.984Z,67.71
2022-10-02T20:17:19.063Z,67.98
2022-10-02T20:19:50.688Z,68.39
2022-10-02T20:22:26.466Z,67.60
2022-10-02T20:24:58.262Z,67.83
2022-10-02T20:27:34.659Z,68.29
2022-10-02T20:30:06.437Z,68.19
2022-10-02T20:32:37.880Z,67.94
2022-10-02T20:35:12.630Z,67.88
2022-10-02T20:37:43.011Z,68.20
2022-10-02T20:40:14.941Z,68.28
2022-10-02T20:42:47.489Z,68.75
2022-10-02T20:45:16.424Z,68.94
2022-10-02T20:47:56.140Z,69.73
2022-10-02T20:50:33.819Z,69.82
2022-10-02T20:53:37.221Z,69.40
2022-10-02T20:56:08.966Z,69.09
2022-10-02T20:58:52.903Z,68.55
2022-10-02T21:01:21.754Z,68.32
2022-10-02T21:04:24.202Z,68.98
2022-10-02T21:07:14.181Z,70.80
2022-10-02T21:10:07.129Z,70.32
2022-10-02T21:12:56.548Z,70.23
2022-10-02T21:16:01.397Z,69.71
2022-10-02T21:18:54.119Z,69.76
2022-10-02T21:21:53.685Z,69.71
2022-10-02T21:24:56.307Z,69.57
2022-10-02T21:28:02.691Z,69.47
2022-10-02T21:30:34.733Z,69.86
2022-10-02T21:33:06.332Z,69.94
2022-10-02T21:35:48.189Z,69.92
2022-10-02T21:38:38.017Z,70.05
2022-10-02T21:41:44.164Z,69.94
2022-10-02T21:44:42.301Z,69.69
2022-10-02T21:47:30.332Z,69.50
2022-10-02T21:50:23.782Z,69.45
2022-10-02T21:53:33.046Z,69.51
2022-10-02T21:56:38.349Z,70.11
2022-10-02T21:59:29.403Z,70.14
2022-10-02T22:02:35.208Z,70.99
2022-10-02T22:05:53.584Z,70.75
2022-10-02T22:08:27.376Z,70.35
2022-10-02T22:11:02.401Z,70.05
2022-10-02T22:13:34.076Z,70.26
2022-10-02T22:16:12.638Z,70.82
2022-10-02T22:18:48.695Z,70.34
2022-10-02T22:21:27.003Z,70.77
2022-10-02T22:24:26.448Z,70.82
2022-10-02T22:27:05.776Z,70.77
2022-10-02T22:29:42.385Z,70.95
2022-10-02T22:32:41.509Z,71.28
2022-10-02T22:35:19.438Z,71.15
2022-10-02T22:38:01.821Z,70.70
2022-10-02T22:40:33.068Z,71.05
2022-10-02T22:43:04.536Z,71.08
2022-10-02T22:45:38.734Z,70.88
2022-10-02T22:48:10.029Z,71.39
2022-10-02T22:50:48.068Z,71.55
2022-10-02T22:53:19.350Z,71.49
2022-10-02T22:55:50.979Z,71.80
2022-10-02T22:58:22.826Z,72.11
2022-10-02T23:00:57.125Z,72.35
2022-10-02T23:03:26.686Z,72.83
2022-10-02T23:06:00.937Z,72.77
2022-10-02T23:08:33.065Z,72.71
2022-10-02T23:11:08.091Z,73.23
2022-10-02T23:13:42.251Z,73.27
2022-10-02T23:16:16.135Z,73.66
2022-10-02T23:18:49.141Z,73.21
2022-10-02T23:21:30.017Z,73.10
2022-10-02T23:24:02.814Z,73.38
2022-10-02T23:26:34.377Z,73.45
2022-10-02T23:29:16.119Z,73.43
2022-10-02T23:31:51.074Z,73.54
2022-10-02T23:34:26.521Z,73.76
2022-10-02T23:36:58.526Z,73.87
2022-10-02T23:39:30.616Z,73.85
2022-10-02T23:41:59.558Z,73.36
2022-10-02T23:44:36.619Z,73.47
2022-10-02T23:47:12.076Z,73.32
2022-10-02T23:49:43.962Z,73.90
2022-10-02T23:52:28.123Z,73.54
2022-10-02T23:55:04.761Z,73.64
2022-10-02T23:57:43.806Z,73.24
